createdAt,value
2018-04-27T00:00:32.682Z,79.30
2018-04-27T00:01:32.544Z,79.77
2018-04-27T00:02:32.470Z,80.34
2018-04-27T00:03:32.404Z,80.05
2018-04-27T00:04:32.316Z,80.05
2018-04-27T00:05:32.243Z,80.05
2018-04-27T00:06:32.167Z,80.63
2018-04-27T00:07:32.291Z,80.72
2018-04-27T00:08:32.022Z,80.11
2018-04-27T00:09:31.939Z,81.16
2018-04-27T00:10:31.866Z,81.44
2018-04-27T00:11:31.790Z,82.58
2018-04-27T00:12:31.713Z,82.58
2018-04-27T00:13:31.663Z,81.82
2018-04-27T00:14:31.559Z,81.54
2018-04-27T00:15:31.487Z,82.01
2018-04-27T00:16:31.431Z,81.63
2018-04-27T00:17:31.334Z,82.01
2018-04-27T00:18:31.257Z,81.63
2018-04-27T00:19:31.179Z,82.58
2018-04-27T00:20:31.102Z,82.29
2018-04-27T00:21:31.030Z,82.10
2018-04-27T00:22:30.954Z,81.82
2018-04-27T00:23:30.876Z,82.68
2018-04-27T00:24:31.673Z,83.34
2018-04-27T00:25:30.732Z,83.15
2018-04-27T00:26:30.666Z,82.68
2018-04-27T00:27:30.578Z,82.77
2018-04-27T00:28:30.496Z,82.58
2018-04-27T00:29:30.456Z,82.68
2018-04-27T00:30:30.348Z,82.77
2018-04-27T00:31:30.268Z,82.87
2018-04-27T00:32:30.193Z,82.87
2018-04-27T00:33:30.118Z,83.44
2018-04-27T00:34:30.043Z,83.06
2018-04-27T00:35:29.963Z,83.34
2018-04-27T00:36:29.895Z,83.25
2018-04-27T00:37:29.811Z,83.82
2018-04-27T00:38:29.736Z,83.82
2018-04-27T00:39:29.660Z,83.25
2018-04-27T00:40:29.583Z,82.87
2018-04-27T00:41:29.505Z,83.34
2018-04-27T00:42:29.431Z,82.87
2018-04-27T00:43:29.355Z,83.25
2018-04-27T00:44:29.278Z,83.30
2018-04-27T00:45:29.199Z,83.39
2018-04-27T00:46:29.128Z,84.25
2018-04-27T00:47:29.069Z,83.62
2018-04-27T00:48:28.973Z,83.97
2018-04-27T00:49:28.900Z,83.68
2018-04-27T00:50:28.824Z,82.73
2018-04-27T00:51:28.745Z,83.59
2018-04-27T00:52:28.669Z,83.30
2018-04-27T00:53:28.599Z,83.68
2018-04-27T00:54:28.559Z,84.34
2018-04-27T00:55:28.441Z,83.49
2018-04-27T00:56:28.364Z,83.87
2018-04-27T00:57:28.295Z,83.49
2018-04-27T00:58:28.212Z,83.49
2018-04-27T00:59:28.132Z,83.49
2018-04-27T01:00:28.058Z,83.68
2018-04-27T01:01:27.980Z,83.59
2018-04-27T01:02:27.902Z,83.59
2018-04-27T01:03:27.843Z,84.34
2018-04-27T01:04:27.752Z,84.06
2018-04-27T01:05:27.674Z,84.25
2018-04-27T01:06:27.605Z,83.20
2018-04-27T01:07:27.521Z,83.68
2018-04-27T01:08:27.446Z,83.87
2018-04-27T01:09:27.372Z,84.25
2018-04-27T01:10:27.293Z,84.63
2018-04-27T01:11:27.218Z,84.16
2018-04-27T01:12:27.140Z,84.34
2018-04-27T01:13:27.064Z,84.16
2018-04-27T01:14:26.986Z,84.44
2018-04-27T01:15:26.915Z,84.16
2018-04-27T01:16:26.843Z,85.01
2018-04-27T01:17:26.754Z,84.82
2018-04-27T01:18:26.679Z,84.44
2018-04-27T01:19:26.638Z,85.01
2018-04-27T01:20:26.520Z,84.72
2018-04-27T01:21:26.450Z,84.44
2018-04-27T01:22:26.373Z,84.53
2018-04-27T01:23:26.298Z,84.63
2018-04-27T01:24:26.226Z,85.01
2018-04-27T01:25:26.147Z,84.63
2018-04-27T01:26:26.069Z,84.97
2018-04-27T01:27:25.990Z,85.01
2018-04-27T01:28:25.918Z,85.35
2018-04-27T01:29:25.840Z,85.11
2018-04-27T01:30:25.754Z,85.25
2018-04-27T01:31:25.684Z,84.91
2018-04-27T01:32:25.604Z,85.72
2018-04-27T01:33:25.524Z,85.68
2018-04-27T01:34:25.456Z,85.68
2018-04-27T01:35:25.375Z,85.20
2018-04-27T01:36:25.307Z,85.68
2018-04-27T01:37:25.227Z,85.30
2018-04-27T01:38:25.141Z,85.30
2018-04-27T01:39:25.066Z,85.86
2018-04-27T01:40:24.989Z,85.58
2018-04-27T01:41:24.913Z,86.05
2018-04-27T01:42:24.836Z,85.77
2018-04-27T01:43:24.762Z,85.96
2018-04-27T01:44:24.679Z,86.68
2018-04-27T01:45:24.611Z,85.82
2018-04-27T01:46:24.527Z,85.72
2018-04-27T01:47:24.455Z,86.01
2018-04-27T01:48:24.375Z,86.30
2018-04-27T01:49:24.299Z,85.91
2018-04-27T01:50:24.304Z,86.01
2018-04-27T01:51:24.151Z,85.91
2018-04-27T01:52:24.164Z,86.20
2018-04-27T01:53:23.992Z,86.39
2018-04-27T01:54:23.913Z,86.77
2018-04-27T01:55:23.838Z,86.58
2018-04-27T01:56:23.771Z,87.34
2018-04-27T01:57:23.687Z,86.96
2018-04-27T01:58:23.604Z,86.77
2018-04-27T01:59:23.531Z,86.58
2018-04-27T02:00:23.454Z,86.68
2018-04-27T02:01:23.375Z,86.68
2018-04-27T02:02:23.302Z,86.68
2018-04-27T02:03:23.318Z,87.24
2018-04-27T02:04:23.151Z,87.34
2018-04-27T02:05:23.073Z,86.87
2018-04-27T02:06:23.004Z,87.15
2018-04-27T02:07:22.915Z,87.34
2018-04-27T02:08:22.837Z,87.62
2018-04-27T02:09:22.761Z,86.58
2018-04-27T02:10:22.686Z,86.58
2018-04-27T02:11:22.606Z,86.39
2018-04-27T02:12:22.529Z,87.05
2018-04-27T02:13:22.452Z,86.39
2018-04-27T02:14:22.377Z,86.68
2018-04-27T02:15:22.303Z,86.68
2018-04-27T02:16:22.292Z,87.05
2018-04-27T02:17:22.143Z,86.58
2018-04-27T02:18:22.073Z,86.96
2018-04-27T02:19:21.994Z,87.15
2018-04-27T02:20:21.918Z,86.49
2018-04-27T02:21:21.837Z,86.68
2018-04-27T02:22:21.752Z,86.96
2018-04-27T02:23:21.688Z,86.20
2018-04-27T02:24:21.602Z,86.68
2018-04-27T02:25:21.528Z,86.87
2018-04-27T02:26:21.452Z,86.68
2018-04-27T02:27:21.375Z,86.58
2018-04-27T02:28:21.304Z,86.68
2018-04-27T02:29:21.216Z,86.68
2018-04-27T02:30:21.143Z,86.49
2018-04-27T02:31:21.062Z,87.24
2018-04-27T02:32:21.046Z,87.34
2018-04-27T02:33:20.909Z,87.15
2018-04-27T02:34:20.839Z,86.30
2018-04-27T02:35:20.754Z,86.77
2018-04-27T02:36:20.682Z,86.30
2018-04-27T02:37:20.602Z,86.96
2018-04-27T02:38:20.519Z,86.58
2018-04-27T02:39:20.453Z,86.68
2018-04-27T02:40:20.365Z,86.30
2018-04-27T02:41:20.302Z,86.68
2018-04-27T02:42:20.209Z,87.15
2018-04-27T02:43:20.137Z,86.87
2018-04-27T02:44:20.056Z,86.58
2018-04-27T02:45:19.981Z,86.49
2018-04-27T02:46:19.905Z,86.77
2018-04-27T02:47:19.827Z,86.30
2018-04-27T02:48:19.854Z,86.39
2018-04-27T02:49:19.671Z,86.58
2018-04-27T02:50:19.595Z,86.49
2018-04-27T02:51:19.516Z,86.49
2018-04-27T02:52:19.440Z,86.68
2018-04-27T02:53:19.361Z,86.63
2018-04-27T02:54:19.303Z,86.87
2018-04-27T02:55:19.205Z,87.15
2018-04-27T02:56:19.169Z,86.91
2018-04-27T02:57:19.056Z,87.01
2018-04-27T02:58:18.978Z,87.20
2018-04-27T02:59:18.893Z,87.01
2018-04-27T03:00:18.821Z,87.30
2018-04-27T03:01:18.752Z,87.01
2018-04-27T03:02:18.669Z,87.49
2018-04-27T03:03:18.596Z,87.11
2018-04-27T03:04:18.513Z,87.01
2018-04-27T03:05:18.434Z,86.91
2018-04-27T03:06:18.361Z,87.11
2018-04-27T03:07:18.281Z,87.53
2018-04-27T03:08:18.201Z,87.24
2018-04-27T03:09:18.127Z,87.15
2018-04-27T03:10:18.052Z,86.87
2018-04-27T03:11:17.980Z,86.20
2018-04-27T03:12:17.900Z,86.49
2018-04-27T03:13:17.816Z,86.35
2018-04-27T03:14:17.740Z,86.25
2018-04-27T03:15:17.662Z,86.44
2018-04-27T03:16:17.595Z,86.44
2018-04-27T03:17:17.510Z,86.35
2018-04-27T03:18:17.430Z,86.25
2018-04-27T03:19:17.354Z,86.20
2018-04-27T03:20:17.276Z,86.25
2018-04-27T03:21:17.202Z,86.20
2018-04-27T03:22:17.205Z,86.20
2018-04-27T03:23:17.052Z,85.63
2018-04-27T03:24:16.971Z,86.20
2018-04-27T03:25:16.891Z,86.30
2018-04-27T03:26:16.865Z,86.20
2018-04-27T03:27:16.739Z,85.63
2018-04-27T03:28:16.657Z,85.35
2018-04-27T03:29:16.580Z,85.63
2018-04-27T03:30:16.507Z,85.91
2018-04-27T03:31:16.424Z,85.16
2018-04-27T03:32:16.350Z,85.06
2018-04-27T03:33:16.270Z,85.06
2018-04-27T03:34:16.272Z,85.25
2018-04-27T03:35:16.117Z,85.35
2018-04-27T03:36:16.045Z,85.63
2018-04-27T03:37:15.963Z,85.35
2018-04-27T03:38:15.886Z,85.35
2018-04-27T03:39:15.831Z,85.44
2018-04-27T03:40:15.731Z,85.16
2018-04-27T03:41:15.659Z,85.63
2018-04-27T03:42:15.577Z,85.91
2018-04-27T03:43:15.499Z,86.20
2018-04-27T03:44:15.420Z,85.53
2018-04-27T03:45:15.345Z,85.25
2018-04-27T03:46:15.279Z,85.16
2018-04-27T03:47:15.199Z,85.44
2018-04-27T03:48:15.113Z,84.97
2018-04-27T03:49:15.043Z,84.97
2018-04-27T03:50:14.989Z,85.63
2018-04-27T03:51:14.883Z,85.44
2018-04-27T03:52:14.825Z,85.53
2018-04-27T03:53:14.722Z,85.16
2018-04-27T03:54:14.697Z,85.06
2018-04-27T03:55:14.594Z,85.06
2018-04-27T03:56:14.501Z,85.25
2018-04-27T03:57:14.418Z,85.44
2018-04-27T03:58:14.348Z,85.82
2018-04-27T03:59:14.266Z,85.53
2018-04-27T04:00:14.190Z,85.63
2018-04-27T04:01:14.139Z,86.01
2018-04-27T04:02:14.039Z,85.25
2018-04-27T04:03:13.956Z,85.53
2018-04-27T04:04:13.877Z,85.72
2018-04-27T04:05:13.800Z,85.49
2018-04-27T04:06:13.738Z,85.82
2018-04-27T04:07:13.687Z,85.25
2018-04-27T04:08:13.567Z,85.63
2018-04-27T04:09:13.488Z,85.82
2018-04-27T04:10:13.431Z,85.59
2018-04-27T04:11:13.345Z,86.07
2018-04-27T04:12:13.267Z,86.16
2018-04-27T04:13:13.185Z,85.97
2018-04-27T04:14:13.108Z,86.44
2018-04-27T04:15:13.038Z,86.54
2018-04-27T04:16:12.952Z,86.44
2018-04-27T04:17:12.873Z,86.39
2018-04-27T04:18:12.797Z,86.54
2018-04-27T04:19:12.719Z,86.07
2018-04-27T04:20:12.640Z,86.35
2018-04-27T04:21:12.595Z,86.16
2018-04-27T04:22:12.492Z,86.35
2018-04-27T04:23:12.410Z,86.07
2018-04-27T04:24:12.332Z,86.16
2018-04-27T04:25:12.256Z,86.39
2018-04-27T04:26:12.176Z,86.54
2018-04-27T04:27:12.101Z,86.07
2018-04-27T04:28:12.085Z,86.25
2018-04-27T04:29:11.946Z,85.87
2018-04-27T04:30:11.873Z,86.35
2018-04-27T04:31:11.791Z,86.35
2018-04-27T04:32:11.715Z,86.07
2018-04-27T04:33:11.647Z,86.25
2018-04-27T04:34:11.555Z,86.63
2018-04-27T04:35:11.482Z,85.87
2018-04-27T04:36:11.405Z,85.97
2018-04-27T04:37:11.333Z,86.16
2018-04-27T04:38:11.249Z,86.72
2018-04-27T04:39:11.174Z,85.87
2018-04-27T04:40:11.090Z,86.44
2018-04-27T04:41:11.026Z,86.25
2018-04-27T04:42:10.936Z,86.16
2018-04-27T04:43:10.882Z,86.25
2018-04-27T04:44:10.786Z,86.20
2018-04-27T04:45:10.789Z,85.82
2018-04-27T04:46:10.633Z,85.35
2018-04-27T04:47:10.549Z,85.30
2018-04-27T04:48:10.475Z,85.25
2018-04-27T04:49:10.398Z,85.06
2018-04-27T04:50:10.320Z,85.02
2018-04-27T04:51:10.273Z,85.02
2018-04-27T04:52:10.170Z,84.78
2018-04-27T04:53:10.106Z,84.97
2018-04-27T04:54:10.012Z,84.87
2018-04-27T04:55:09.933Z,84.78
2018-04-27T04:56:09.855Z,85.16
2018-04-27T04:57:09.788Z,85.16
2018-04-27T04:58:09.702Z,84.49
2018-04-27T04:59:09.624Z,84.78
2018-04-27T05:00:09.548Z,84.49
2018-04-27T05:01:09.472Z,84.40
2018-04-27T05:02:09.393Z,84.40
2018-04-27T05:03:09.321Z,84.21
2018-04-27T05:04:09.236Z,84.21
2018-04-27T05:05:09.162Z,84.01
2018-04-27T05:06:09.085Z,84.30
2018-04-27T05:07:09.007Z,84.01
2018-04-27T05:08:08.936Z,84.01
2018-04-27T05:09:08.851Z,84.01
2018-04-27T05:10:08.775Z,84.01
2018-04-27T05:11:08.699Z,84.01
2018-04-27T05:12:08.621Z,83.26
2018-04-27T05:13:08.545Z,83.83
2018-04-27T05:14:08.466Z,83.36
2018-04-27T05:15:08.389Z,82.97
2018-04-27T05:16:08.312Z,83.26
2018-04-27T05:17:08.236Z,83.16
2018-04-27T05:18:08.157Z,83.20
2018-04-27T05:19:08.076Z,82.45
2018-04-27T05:20:08.005Z,82.07
2018-04-27T05:21:07.927Z,81.49
2018-04-27T05:22:07.852Z,81.87
2018-04-27T05:23:07.772Z,81.59
2018-04-27T05:24:07.698Z,81.30
2018-04-27T05:25:07.619Z,81.78
2018-04-27T05:26:07.551Z,81.59
2018-04-27T05:27:07.463Z,80.93
2018-04-27T05:28:07.390Z,80.26
2018-04-27T05:29:07.308Z,80.26
2018-04-27T05:30:07.233Z,80.64
2018-04-27T05:31:07.161Z,80.55
2018-04-27T05:32:07.097Z,79.69
2018-04-27T05:33:07.002Z,79.60
2018-04-27T05:34:06.923Z,79.97
2018-04-27T05:35:06.850Z,79.88
2018-04-27T05:36:06.776Z,79.44
2018-04-27T05:37:06.699Z,79.22
2018-04-27T05:38:06.620Z,80.30
2018-04-27T05:39:06.586Z,79.54
2018-04-27T05:40:06.475Z,79.44
2018-04-27T05:41:06.394Z,79.35
2018-04-27T05:42:06.315Z,79.92
2018-04-27T05:43:06.237Z,79.16
2018-04-27T05:44:06.165Z,79.16
2018-04-27T05:45:06.099Z,79.25
2018-04-27T05:46:06.011Z,79.92
2018-04-27T05:47:05.937Z,79.44
2018-04-27T05:48:05.855Z,79.16
2018-04-27T05:49:05.779Z,79.25
2018-04-27T05:50:05.708Z,79.25
2018-04-27T05:51:05.623Z,79.54
2018-04-27T05:52:05.557Z,78.78
2018-04-27T05:53:05.481Z,79.06
2018-04-27T05:54:05.400Z,79.16
2018-04-27T05:55:05.330Z,78.59
2018-04-27T05:56:05.249Z,78.50
2018-04-27T05:57:05.172Z,78.88
2018-04-27T05:58:05.203Z,78.97
2018-04-27T05:59:05.020Z,78.69
2018-04-27T06:00:04.952Z,78.50
2018-04-27T06:01:04.887Z,78.69
2018-04-27T06:02:04.794Z,77.55
2018-04-27T06:03:04.716Z,78.02
2018-04-27T06:04:04.645Z,78.02
2018-04-27T06:05:04.569Z,77.83
2018-04-27T06:06:04.492Z,78.06
2018-04-27T06:07:04.419Z,77.77
2018-04-27T06:08:04.341Z,77.64
2018-04-27T06:09:04.263Z,77.87
2018-04-27T06:10:04.198Z,77.68
2018-04-27T06:11:04.111Z,77.01
2018-04-27T06:12:04.042Z,77.39
2018-04-27T06:13:03.957Z,77.11
2018-04-27T06:14:03.880Z,77.30
2018-04-27T06:15:03.805Z,77.26
2018-04-27T06:16:03.836Z,77.39
2018-04-27T06:17:03.648Z,77.30
2018-04-27T06:18:03.584Z,77.30
2018-04-27T06:19:03.529Z,77.11
2018-04-27T06:20:03.425Z,76.73
2018-04-27T06:21:03.351Z,76.06
2018-04-27T06:22:03.278Z,75.87
2018-04-27T06:23:03.202Z,75.96
2018-04-27T06:24:03.126Z,75.96
2018-04-27T06:25:03.046Z,76.73
2018-04-27T06:26:02.975Z,75.87
2018-04-27T06:27:02.898Z,76.25
2018-04-27T06:28:02.825Z,75.68
2018-04-27T06:29:02.748Z,77.01
2018-04-27T06:30:02.674Z,76.63
2018-04-27T06:31:02.601Z,75.68
2018-04-27T06:32:02.524Z,75.53
2018-04-27T06:33:02.449Z,75.62
2018-04-27T06:34:02.370Z,75.62
2018-04-27T06:35:02.293Z,75.62
2018-04-27T06:36:02.217Z,75.81
2018-04-27T06:37:02.144Z,75.81
2018-04-27T06:38:02.071Z,75.34
2018-04-27T06:39:02.003Z,74.39
2018-04-27T06:40:01.920Z,75.05
2018-04-27T06:41:01.842Z,74.58
2018-04-27T06:42:01.769Z,74.96
2018-04-27T06:43:01.693Z,74.67
2018-04-27T06:44:01.624Z,74.58
2018-04-27T06:45:01.545Z,74.48
2018-04-27T06:46:01.466Z,75.05
2018-04-27T06:47:01.402Z,74.14
2018-04-27T06:48:01.319Z,74.39
2018-04-27T06:49:01.243Z,74.71
2018-04-27T06:50:01.173Z,74.14
2018-04-27T06:51:01.091Z,74.33
2018-04-27T06:52:01.024Z,74.33
2018-04-27T06:53:00.943Z,74.14
2018-04-27T06:54:00.867Z,74.04
2018-04-27T06:55:00.798Z,74.43
2018-04-27T06:56:00.722Z,74.04
2018-04-27T06:57:00.645Z,74.14
2018-04-27T06:58:00.572Z,73.95
2018-04-27T06:59:00.496Z,73.85
2018-04-27T07:00:00.426Z,73.00
2018-04-27T07:01:00.351Z,73.19
2018-04-27T07:02:00.271Z,72.81
2018-04-27T07:03:00.198Z,72.85
2018-04-27T07:04:00.122Z,73.22
2018-04-27T07:05:00.052Z,72.85
2018-04-27T07:05:59.979Z,72.27
2018-04-27T07:06:59.907Z,71.89
2018-04-27T07:07:59.848Z,72.37
2018-04-27T07:08:59.744Z,72.56
2018-04-27T07:09:59.674Z,72.27
2018-04-27T07:10:59.601Z,72.46
2018-04-27T07:11:59.527Z,73.03
2018-04-27T07:12:59.451Z,72.27
2018-04-27T07:13:59.376Z,71.32
2018-04-27T07:14:59.304Z,70.84
2018-04-27T07:15:59.235Z,70.50
2018-04-27T07:16:59.224Z,70.69
2018-04-27T07:17:59.081Z,70.88
2018-04-27T07:18:59.006Z,70.31
2018-04-27T07:19:58.936Z,70.40
2018-04-27T07:20:58.858Z,70.50
2018-04-27T07:21:58.785Z,70.69
2018-04-27T07:22:58.721Z,70.50
2018-04-27T07:23:58.648Z,70.31
2018-04-27T07:24:58.566Z,69.54
2018-04-27T07:25:58.599Z,70.50
2018-04-27T07:26:58.415Z,70.31
2018-04-27T07:27:58.350Z,69.39
2018-04-27T07:28:58.269Z,69.96
2018-04-27T07:29:58.200Z,69.10
2018-04-27T07:30:58.142Z,69.17
2018-04-27T07:31:58.048Z,69.39
2018-04-27T07:32:57.972Z,69.77
2018-04-27T07:33:57.903Z,68.91
2018-04-27T07:34:57.829Z,68.72
2018-04-27T07:35:57.754Z,67.77
2018-04-27T07:36:57.681Z,67.68
2018-04-27T07:37:57.608Z,68.15
2018-04-27T07:38:57.544Z,67.86
2018-04-27T07:39:57.460Z,68.18
2018-04-27T07:40:57.386Z,67.99
2018-04-27T07:41:57.316Z,67.71
2018-04-27T07:42:57.253Z,67.04
2018-04-27T07:43:57.167Z,65.99
2018-04-27T07:44:57.099Z,65.99
2018-04-27T07:45:57.020Z,66.31
2018-04-27T07:46:56.944Z,65.93
2018-04-27T07:47:56.873Z,65.64
2018-04-27T07:48:56.804Z,65.17
2018-04-27T07:49:56.730Z,64.50
2018-04-27T07:50:56.660Z,63.73
2018-04-27T07:51:56.581Z,63.35
2018-04-27T07:52:56.513Z,63.64
2018-04-27T07:53:56.437Z,63.83
2018-04-27T07:54:56.361Z,64.50
2018-04-27T07:55:56.290Z,64.21
2018-04-27T07:56:56.219Z,64.34
2018-04-27T07:57:56.180Z,62.62
2018-04-27T07:58:56.069Z,62.43
2018-04-27T07:59:56.001Z,62.91
2018-04-27T08:00:55.924Z,62.68
2018-04-27T08:01:55.853Z,61.47
2018-04-27T08:02:55.783Z,60.81
2018-04-27T08:03:55.713Z,59.66
2018-04-27T08:04:55.634Z,59.95
2018-04-27T08:05:55.563Z,59.38
2018-04-27T08:06:55.492Z,59.22
2018-04-27T08:07:55.419Z,58.26
2018-04-27T08:08:55.366Z,58.45
2018-04-27T08:09:55.272Z,57.78
2018-04-27T08:10:55.202Z,57.40
2018-04-27T08:11:55.129Z,58.45
2018-04-27T08:12:55.057Z,57.14
2018-04-27T08:13:54.987Z,56.67
2018-04-27T08:14:54.916Z,56.76
2018-04-27T08:15:54.840Z,56.47
2018-04-27T08:16:54.765Z,54.85
2018-04-27T08:17:54.696Z,54.47
2018-04-27T08:18:54.624Z,54.85
2018-04-27T08:19:54.552Z,56.28
2018-04-27T08:20:54.479Z,55.61
2018-04-27T08:21:54.406Z,55.04
2018-04-27T08:22:54.337Z,54.66
2018-04-27T08:23:54.266Z,54.56
2018-04-27T08:24:54.191Z,54.68
2018-04-27T08:25:54.123Z,54.78
2018-04-27T08:26:54.050Z,54.59
2018-04-27T08:27:53.979Z,54.30
2018-04-27T08:28:53.909Z,53.63
2018-04-27T08:29:53.829Z,53.08
2018-04-27T08:30:53.766Z,53.18
2018-04-27T08:31:53.690Z,52.89
2018-04-27T08:32:53.628Z,52.51
2018-04-27T08:33:53.548Z,50.50
2018-04-27T08:34:53.477Z,50.24
2018-04-27T08:35:53.406Z,49.86
2018-04-27T08:36:53.335Z,49.95
2018-04-27T08:37:53.263Z,49.76
2018-04-27T08:38:53.191Z,49.95
2018-04-27T08:39:53.125Z,49.76
2018-04-27T08:40:53.049Z,49.00
2018-04-27T08:41:52.980Z,48.52
2018-04-27T08:42:52.908Z,47.37
2018-04-27T08:43:52.852Z,47.08
2018-04-27T08:44:52.767Z,47.08
2018-04-27T08:45:52.720Z,46.89
2018-04-27T08:46:52.630Z,46.61
2018-04-27T08:47:52.558Z,46.51
2018-04-27T08:48:52.487Z,46.03
2018-04-27T08:49:52.415Z,46.22
2018-04-27T08:50:52.345Z,45.36
2018-04-27T08:51:52.278Z,45.36
2018-04-27T08:52:52.201Z,45.17
2018-04-27T08:53:52.129Z,44.98
2018-04-27T08:54:52.059Z,45.38
2018-04-27T08:55:51.989Z,45.48
2018-04-27T08:56:51.923Z,45.29
2018-04-27T08:57:51.850Z,45.38
2018-04-27T08:58:51.782Z,44.52
2018-04-27T08:59:51.710Z,44.16
2018-04-27T09:00:51.634Z,43.68
2018-04-27T09:01:51.569Z,43.77
2018-04-27T09:02:51.568Z,43.10
2018-04-27T09:03:51.432Z,43.59
2018-04-27T09:04:51.364Z,42.63
2018-04-27T09:05:51.290Z,42.05
2018-04-27T09:06:51.221Z,41.57
2018-04-27T09:07:51.153Z,41.86
2018-04-27T09:08:51.082Z,41.97
2018-04-27T09:09:51.011Z,41.11
2018-04-27T09:10:50.945Z,40.66
2018-04-27T09:11:50.872Z,40.81
2018-04-27T09:12:50.802Z,40.92
2018-04-27T09:13:50.730Z,40.83
2018-04-27T09:14:50.665Z,40.17
2018-04-27T09:15:50.597Z,39.98
2018-04-27T09:16:50.528Z,39.23
2018-04-27T09:17:50.458Z,38.01
2018-04-27T09:18:50.388Z,36.58
2018-04-27T09:19:50.320Z,36.01
2018-04-27T09:20:50.247Z,36.41
2018-04-27T09:21:50.186Z,36.15
2018-04-27T09:22:50.115Z,35.20
2018-04-27T09:23:50.052Z,33.87
2018-04-27T09:24:49.972Z,33.58
2018-04-27T09:25:49.910Z,33.58
2018-04-27T09:26:49.873Z,33.18
2018-04-27T09:27:49.784Z,32.81
2018-04-27T09:28:49.711Z,33.36
2018-04-27T09:29:49.646Z,33.44
2018-04-27T09:30:49.575Z,33.91
2018-04-27T09:31:49.506Z,33.93
2018-04-27T09:32:49.456Z,34.33
2018-04-27T09:33:49.376Z,33.18
2018-04-27T09:34:49.311Z,33.37
2018-04-27T09:35:49.261Z,33.00
2018-04-27T09:36:49.185Z,32.34
2018-04-27T09:37:49.119Z,31.18
2018-04-27T09:38:49.044Z,30.71
2018-04-27T09:39:49.005Z,29.86
2018-04-27T09:40:48.924Z,30.45
2018-04-27T09:41:48.865Z,31.49
2018-04-27T09:42:48.791Z,31.12
2018-04-27T09:43:48.724Z,30.71
2018-04-27T09:44:48.662Z,30.60
2018-04-27T09:45:48.621Z,31.09
2018-04-27T09:46:48.535Z,31.29
2018-04-27T09:47:48.467Z,31.19
2018-04-27T09:48:48.414Z,30.60
2018-04-27T09:49:48.358Z,31.38
2018-04-27T09:50:48.296Z,31.30
2018-04-27T09:51:48.210Z,30.18
2018-04-27T09:52:48.163Z,27.96
2018-04-27T09:53:48.084Z,28.72
2018-04-27T09:54:48.048Z,28.61
2018-04-27T09:55:47.957Z,28.73
2018-04-27T09:56:47.903Z,28.05
2018-04-27T09:57:47.835Z,27.98
2018-04-27T09:58:47.760Z,28.00
2018-04-27T09:59:47.715Z,27.62
2018-04-27T10:00:47.647Z,26.46
2018-04-27T10:01:47.575Z,25.48
2018-04-27T10:02:47.516Z,25.56
2018-04-27T10:03:47.454Z,26.39
2018-04-27T10:04:47.399Z,28.00
2018-04-27T10:05:47.408Z,29.80
2018-04-27T10:06:47.266Z,31.51
2018-04-27T10:07:47.205Z,32.68
2018-04-27T10:08:47.164Z,33.03
2018-04-27T10:09:47.079Z,32.67
2018-04-27T10:10:47.018Z,32.76
2018-04-27T10:11:46.962Z,32.67
2018-04-27T10:12:46.901Z,34.19
2018-04-27T10:13:46.833Z,33.91
2018-04-27T10:14:46.761Z,32.93
2018-04-27T10:15:46.705Z,32.75
2018-04-27T10:16:46.641Z,32.65
2018-04-27T10:17:46.563Z,32.76
2018-04-27T10:18:46.513Z,32.75
2018-04-27T10:19:46.444Z,32.06
2018-04-27T10:20:46.388Z,31.90
2018-04-27T10:21:46.317Z,31.43
2018-04-27T10:22:46.248Z,30.18
2018-04-27T10:23:46.188Z,30.93
2018-04-27T10:24:46.112Z,30.68
2018-04-27T10:25:46.058Z,29.72
2018-04-27T10:26:45.991Z,28.85
2018-04-27T10:27:45.923Z,29.72
2018-04-27T10:28:45.859Z,29.35
2018-04-27T10:29:45.793Z,28.96
2018-04-27T10:30:45.731Z,28.97
2018-04-27T10:31:45.672Z,28.67
2018-04-27T10:32:45.597Z,28.67
2018-04-27T10:33:45.542Z,27.78
2018-04-27T10:34:45.461Z,29.03
2018-04-27T10:35:45.405Z,28.66
2018-04-27T10:36:45.337Z,26.82
2018-04-27T10:37:45.272Z,27.02
2018-04-27T10:38:45.210Z,27.02
2018-04-27T10:39:45.143Z,27.40
2018-04-27T10:40:45.076Z,27.89
2018-04-27T10:41:45.041Z,29.33
2018-04-27T10:42:44.952Z,29.70
2018-04-27T10:43:44.888Z,30.77
2018-04-27T10:44:44.813Z,31.24
2018-04-27T10:45:44.755Z,31.41
2018-04-27T10:46:44.682Z,31.15
2018-04-27T10:47:44.614Z,30.29
2018-04-27T10:48:44.551Z,29.81
2018-04-27T10:49:44.484Z,30.10
2018-04-27T10:50:44.427Z,28.95
2018-04-27T10:51:44.352Z,29.04
2018-04-27T10:52:44.289Z,28.16
2018-04-27T10:53:44.223Z,28.16
2018-04-27T10:54:44.149Z,28.45
2018-04-27T10:55:44.089Z,27.95
2018-04-27T10:56:44.018Z,29.61
2018-04-27T10:57:43.958Z,27.87
2018-04-27T10:58:43.887Z,27.89
2018-04-27T10:59:43.819Z,27.87
2018-04-27T11:00:43.750Z,27.87
2018-04-27T11:01:43.685Z,27.78
2018-04-27T11:02:43.615Z,27.87
2018-04-27T11:03:43.550Z,27.87
2018-04-27T11:04:43.484Z,27.59
2018-04-27T11:05:43.415Z,26.15
2018-04-27T11:06:43.352Z,26.05
2018-04-27T11:07:43.284Z,26.34
2018-04-27T11:08:43.213Z,26.62
2018-04-27T11:09:43.157Z,26.62
2018-04-27T11:10:43.087Z,26.34
2018-04-27T11:11:43.015Z,27.01
2018-04-27T11:12:42.948Z,27.19
2018-04-27T11:13:42.885Z,28.16
2018-04-27T11:14:42.815Z,27.87
2018-04-27T11:15:42.745Z,28.07
2018-04-27T11:16:42.740Z,28.93
2018-04-27T11:17:42.614Z,30.26
2018-04-27T11:18:42.548Z,29.88
2018-04-27T11:19:42.477Z,28.92
2018-04-27T11:20:42.410Z,27.86
2018-04-27T11:21:42.346Z,27.95
2018-04-27T11:22:42.278Z,27.94
2018-04-27T11:23:42.208Z,28.89
2018-04-27T11:24:42.142Z,29.96
2018-04-27T11:25:42.074Z,29.88
2018-04-27T11:26:42.010Z,29.59
2018-04-27T11:27:41.943Z,29.97
2018-04-27T11:28:41.903Z,29.80
2018-04-27T11:29:41.811Z,30.08
2018-04-27T11:30:41.739Z,30.47
2018-04-27T11:31:41.675Z,30.58
2018-04-27T11:32:41.607Z,29.43
2018-04-27T11:33:41.582Z,29.43
2018-04-27T11:34:41.469Z,29.62
2018-04-27T11:35:41.402Z,29.24
2018-04-27T11:36:41.341Z,27.98
2018-04-27T11:37:41.268Z,28.08
2018-04-27T11:38:41.201Z,27.89
2018-04-27T11:39:41.137Z,28.19
2018-04-27T11:40:41.064Z,27.81
2018-04-27T11:41:41.007Z,27.81
2018-04-27T11:42:40.933Z,28.58
2018-04-27T11:43:40.868Z,28.97
2018-04-27T11:44:40.799Z,28.02
2018-04-27T11:45:40.730Z,27.82
2018-04-27T11:46:40.670Z,27.92
2018-04-27T11:47:40.671Z,26.76
2018-04-27T11:48:40.533Z,27.62
2018-04-27T11:49:40.469Z,27.24
2018-04-27T11:50:40.402Z,27.05
2018-04-27T11:51:40.334Z,28.02
2018-04-27T11:52:40.269Z,28.67
2018-04-27T11:53:40.203Z,28.77
2018-04-27T11:54:40.135Z,29.27
2018-04-27T11:55:40.069Z,29.65
2018-04-27T11:56:40.006Z,28.59
2018-04-27T11:57:39.946Z,28.80
2018-04-27T11:58:39.875Z,28.61
2018-04-27T11:59:39.815Z,28.02
2018-04-27T12:00:39.740Z,27.91
2018-04-27T12:01:39.768Z,28.95
2018-04-27T12:02:39.612Z,29.70
2018-04-27T12:03:39.566Z,30.19
2018-04-27T12:04:39.473Z,30.19
2018-04-27T12:05:39.403Z,29.52
2018-04-27T12:06:39.350Z,29.93
2018-04-27T12:07:39.278Z,30.10
2018-04-27T12:08:39.209Z,29.61
2018-04-27T12:09:39.141Z,30.46
2018-04-27T12:10:39.151Z,31.32
2018-04-27T12:11:39.009Z,31.80
2018-04-27T12:12:38.941Z,30.93
2018-04-27T12:13:38.879Z,30.57
2018-04-27T12:14:38.808Z,30.85
2018-04-27T12:15:38.741Z,30.76
2018-04-27T12:16:38.675Z,31.15
2018-04-27T12:17:38.614Z,31.24
2018-04-27T12:18:38.539Z,31.72
2018-04-27T12:19:38.472Z,31.62
2018-04-27T12:20:38.417Z,31.80
2018-04-27T12:21:38.401Z,31.98
2018-04-27T12:22:38.272Z,32.65
2018-04-27T12:23:38.204Z,32.95
2018-04-27T12:24:38.133Z,32.76
2018-04-27T12:25:38.067Z,33.05
2018-04-27T12:26:37.999Z,33.16
2018-04-27T12:27:37.935Z,32.86
2018-04-27T12:28:37.863Z,33.15
2018-04-27T12:29:37.793Z,32.78
2018-04-27T12:30:37.730Z,32.39
2018-04-27T12:31:37.748Z,31.83
2018-04-27T12:32:37.591Z,31.74
2018-04-27T12:33:37.525Z,31.34
2018-04-27T12:34:37.457Z,32.59
2018-04-27T12:35:37.393Z,32.30
2018-04-27T12:36:37.322Z,32.31
2018-04-27T12:37:37.252Z,31.74
2018-04-27T12:38:37.189Z,31.56
2018-04-27T12:39:37.121Z,30.40
2018-04-27T12:40:37.086Z,29.44
2018-04-27T12:41:36.983Z,30.02
2018-04-27T12:42:36.918Z,30.22
2018-04-27T12:43:36.845Z,30.11
2018-04-27T12:44:36.779Z,27.51
2018-04-27T12:45:36.713Z,28.00
2018-04-27T12:46:36.643Z,30.10
2018-04-27T12:47:36.575Z,31.06
2018-04-27T12:48:36.507Z,31.54
2018-04-27T12:49:36.440Z,32.39
2018-04-27T12:50:36.383Z,31.45
2018-04-27T12:51:36.309Z,28.85